Terminal Aerodrome Forecast
Issued by NWS

Home | Current Version | Previous Version | Text Only | Print | Product List | Glossary On
Versions: 1 2 3 4 5 6 7 8 9 10 11 12 13 14 15 16 17 18 19
000
FTUS44 KTSA 210800 AAA
TAFRVS
TAF AMD
KRVS 210822Z 2108/2206 00000KT P6SM SKC
      TEMPO 2108/2112 5SM BR
     FM211200 36005KT P6SM VCTS SCT025CB BKN050
     FM211600 01007KT P6SM SCT250
     FM211800 01010G18KT P6SM SCT250
     FM220100 36003KT P6SM SKC=

USA.gov is the U.S. government's official web portal to all federal, state and local government web resources and services.